Terminal Aerodrome Forecast
Issued by NWS Wakefield, VA

Home | Current Version | Previous Version | Text Only | Print | Product List | Glossary On
Versions: 1 2 3 4 5 6 7 8 9 10 11 12 13 14 15 16 17
303
FTUS41 KAKQ 300047 AAA
TAFRIC
TAF AMD
KRIC 300047Z 3001/3024 35008KT 6SM -RA BR BKN005 OVC015
      TEMPO 3001/3003 2SM +RA BR SCT005 OVC015
     FM300300 VRB04KT 3SM -RA BR OVC004
     FM301000 VRB03KT 1SM -RA BR OVC005
     FM301600 36004KT 5SM BR OVC015=

USA.gov is the U.S. government's official web portal to all federal, state and local government web resources and services.